This is the latest recevied weather packets stored in our database for station/object YS1AHL-29. If no packets are shown the sender has not sent any weather packets the latest 10 day(s).
| Time | Temp. | Humidity | Pressure | Rain* | Wind** | Luminosity | Snow |
|---|---|---|---|---|---|---|---|
| 1777772013 | 23.33° C | 47% | 1013 hPa | 0 mm | - | - | - |
| 1777770151 | 23.33° C | 49% | 1013 hPa | 0 mm | - | - | - |
| 1777769010 | 23.33° C | 52% | 1013 hPa | 0 mm | - | - | - |
| 1777768950 | 23.33° C | 52% | 1013 hPa | 0 mm | - | - | - |
| 1777768409 | 23.89° C | 47% | 1013 hPa | 0 mm | - | - | - |
| 1777768349 | 23.89° C | 47% | 1013 hPa | 0 mm | - | - | - |
| 1777767809 | 23.89° C | 47% | 1013 hPa | 0 mm | - | - | - |
| 1777767749 | 23.89° C | 47% | 1013 hPa | 0 mm | - | - | - |
| 1777767208 | 23.89° C | 47% | 1013 hPa | 0 mm | - | - | - |
| 1777767148 | 23.89° C | 47% | 1013 hPa | 0 mm | - | - | - |
| 1777766547 | 23.89° C | 48% | 1013 hPa | 0 mm | - | - | - |
| 1777765947 | 23.89° C | 49% | 1013 hPa | 0 mm | - | - | - |
| 1777764745 | 25° C | 46% | 1013 hPa | 0 mm | - | - | - |
| 1777764205 | 25° C | 48% | 1014 hPa | 0 mm | - | - | - |
| 1777764145 | 25° C | 48% | 1014 hPa | 0 mm | - | - | - |
| 1777763605 | 25° C | 48% | 1014 hPa | 0 mm | - | - | - |
| 1777761803 | 24.44° C | 48% | 1014 hPa | 0 mm | - | - | - |
| 1777761142 | 23.33° C | 53% | 1015 hPa | 0 mm | - | - | - |
| 1777760602 | 24.44° C | 49% | 1015 hPa | 0 mm | - | - | - |
| 1777760541 | 24.44° C | 49% | 1015 hPa | 0 mm | - | - | - |
| 1777760001 | 23.89° C | 52% | 1015 hPa | 0 mm | - | - | - |
| 1777759941 | 23.89° C | 52% | 1015 hPa | 0 mm | - | - | - |
| 1777759400 | 23.33° C | 51% | 1015 hPa | 0 mm | - | - | - |
| 1777758199 | 22.78° C | 51% | 1015 hPa | 0 mm | - | - | - |
| 1777757538 | 22.78° C | 54% | 1015 hPa | 0 mm | - | - | - |
* Rain latest hour (hover to see other rain measurements)
** Current wind speed in m/s (hover to see current wind gust speed)